createdAt,value
2023-02-26T00:01:24.692Z,43.73
2023-02-26T00:03:53.752Z,39.80
2023-02-26T00:06:22.132Z,37.73
2023-02-26T00:08:50.690Z,37.90
2023-02-26T00:11:19.901Z,39.83
2023-02-26T00:13:50.293Z,38.53
2023-02-26T00:16:27.426Z,35.57
2023-02-26T00:18:56.297Z,39.97
2023-02-26T00:21:26.124Z,32.23
2023-02-26T00:23:54.743Z,34.30
2023-02-26T00:26:24.593Z,32.83
2023-02-26T00:28:55.047Z,35.03
2023-02-26T00:31:24.979Z,35.80
2023-02-26T00:33:54.417Z,28.10
2023-02-26T00:36:26.282Z,33.80
2023-02-26T00:39:07.078Z,35.87
2023-02-26T00:41:36.508Z,32.07
2023-02-26T00:44:07.066Z,33.77
2023-02-26T00:46:45.369Z,33.07
2023-02-26T00:49:24.421Z,33.63
2023-02-26T00:51:57.275Z,31.20
2023-02-26T00:54:27.143Z,32.20
2023-02-26T00:56:56.611Z,34.83
2023-02-26T00:59:27.122Z,32.73
2023-02-26T01:01:55.377Z,36.93
2023-02-26T01:04:25.358Z,33.17
2023-02-26T01:06:56.977Z,34.20
2023-02-26T01:09:29.009Z,34.50
2023-02-26T01:12:01.606Z,35.87
2023-02-26T01:14:32.727Z,35.97
2023-02-26T01:17:07.681Z,29.80
2023-02-26T01:19:42.946Z,31.87
2023-02-26T01:22:20.695Z,33.90
2023-02-26T01:24:50.589Z,31.67
2023-02-26T01:27:19.512Z,34.53
2023-02-26T01:29:49.942Z,36.27
2023-02-26T01:32:25.873Z,34.43
2023-02-26T01:35:01.209Z,33.27
2023-02-26T01:37:37.382Z,33.27
2023-02-26T01:40:35.180Z,31.43
2023-02-26T01:43:11.500Z,39.53
2023-02-26T01:46:00.635Z,37.50
2023-02-26T01:48:38.840Z,38.73
2023-02-26T01:51:07.559Z,36.90
2023-02-26T01:53:35.928Z,33.23
2023-02-26T01:56:10.804Z,39.73
2023-02-26T01:58:40.017Z,39.80
2023-02-26T02:01:09.944Z,33.13
2023-02-26T02:03:40.887Z,36.00
2023-02-26T02:06:12.125Z,38.17
2023-02-26T02:08:40.589Z,36.23
2023-02-26T02:11:11.995Z,34.00
2023-02-26T02:13:52.677Z,34.37
2023-02-26T02:16:32.756Z,35.93
2023-02-26T02:19:16.231Z,30.63
2023-02-26T02:22:13.353Z,38.13
2023-02-26T02:24:54.318Z,33.23
2023-02-26T02:27:32.229Z,29.17
2023-02-26T02:30:32.806Z,33.87
2023-02-26T02:33:06.524Z,30.77
2023-02-26T02:35:40.431Z,35.90
2023-02-26T02:38:15.393Z,30.97
2023-02-26T02:40:48.466Z,27.73
2023-02-26T02:43:18.551Z,30.97
2023-02-26T02:45:51.332Z,33.57
2023-02-26T02:48:26.371Z,27.00
2023-02-26T02:51:00.138Z,33.77
2023-02-26T02:53:34.433Z,26.87
2023-02-26T02:56:07.155Z,34.03
2023-02-26T02:58:40.198Z,30.87
2023-02-26T03:01:12.579Z,30.40
2023-02-26T03:03:46.364Z,30.13
2023-02-26T03:06:15.015Z,32.10
2023-02-26T03:08:44.233Z,28.27
2023-02-26T03:11:12.947Z,29.73
2023-02-26T03:13:42.196Z,32.90
2023-02-26T03:16:26.937Z,30.07
2023-02-26T03:19:05.893Z,34.13
2023-02-26T03:21:41.230Z,36.27
2023-02-26T03:24:17.335Z,32.13
2023-02-26T03:26:53.770Z,30.13
2023-02-26T03:29:29.231Z,35.60
2023-02-26T03:32:01.954Z,33.93
2023-02-26T03:34:40.471Z,32.50
2023-02-26T03:37:15.092Z,28.57
2023-02-26T03:39:47.772Z,31.70
2023-02-26T03:42:21.924Z,31.33
2023-02-26T03:44:55.141Z,33.13
2023-02-26T03:47:24.260Z,32.57
2023-02-26T03:49:56.741Z,38.05
2023-02-26T03:52:30.057Z,36.60
2023-02-26T03:55:03.710Z,36.90
2023-02-26T03:57:32.525Z,38.60
2023-02-26T04:00:00.953Z,38.50
2023-02-26T04:02:34.616Z,41.40
2023-02-26T04:05:10.332Z,40.20
2023-02-26T04:07:38.725Z,41.43
2023-02-26T04:10:09.442Z,36.83
2023-02-26T04:12:37.730Z,43.37
2023-02-26T04:15:06.965Z,42.03
2023-02-26T04:17:35.327Z,41.10
2023-02-26T04:20:08.153Z,38.53
2023-02-26T04:22:36.771Z,37.90
2023-02-26T04:25:06.418Z,38.58
2023-02-26T04:27:34.772Z,37.47
2023-02-26T04:30:03.065Z,36.07
2023-02-26T04:32:32.934Z,32.63
2023-02-26T04:35:01.285Z,39.20
2023-02-26T04:37:31.012Z,38.93
2023-02-26T04:39:59.401Z,38.67
2023-02-26T04:42:27.683Z,36.63
2023-02-26T04:44:55.971Z,34.27
2023-02-26T04:47:24.292Z,35.13
2023-02-26T04:49:52.645Z,31.03
2023-02-26T04:52:21.195Z,35.13
2023-02-26T04:54:50.969Z,32.00
2023-02-26T04:57:19.320Z,38.57
2023-02-26T04:59:49.318Z,30.13
2023-02-26T05:02:17.711Z,33.80
2023-02-26T05:04:46.138Z,35.37
2023-02-26T05:07:14.522Z,33.30
2023-02-26T05:09:42.819Z,43.73
2023-02-26T05:12:12.564Z,42.60
2023-02-26T05:14:40.901Z,36.43
2023-02-26T05:17:09.299Z,31.90
2023-02-26T05:19:37.630Z,38.93
2023-02-26T05:22:05.882Z,32.27
2023-02-26T05:24:35.186Z,34.40
2023-02-26T05:27:03.628Z,43.03
2023-02-26T05:29:33.519Z,41.40
2023-02-26T05:32:01.852Z,38.93
2023-02-26T05:34:30.279Z,30.80
2023-02-26T05:36:58.667Z,36.83
2023-02-26T05:39:27.136Z,33.50
2023-02-26T05:41:55.541Z,33.40
2023-02-26T05:44:24.297Z,29.17
2023-02-26T05:46:54.154Z,28.70
2023-02-26T05:49:22.561Z,30.90
2023-02-26T05:51:50.952Z,26.27
2023-02-26T05:54:19.253Z,23.00
2023-02-26T05:56:47.522Z,24.83
2023-02-26T05:59:16.030Z,25.60
2023-02-26T06:01:45.553Z,27.67
2023-02-26T06:04:15.382Z,28.73
2023-02-26T06:06:43.653Z,36.00
2023-02-26T06:09:12.319Z,29.07
2023-02-26T06:11:40.695Z,30.57
2023-02-26T06:14:09.055Z,30.20
2023-02-26T06:16:37.435Z,35.57
2023-02-26T06:19:06.224Z,32.80
2023-02-26T06:21:35.958Z,35.97
2023-02-26T06:24:04.262Z,29.17
2023-02-26T06:26:32.608Z,29.10
2023-02-26T06:29:00.947Z,30.27
2023-02-26T06:31:36.011Z,29.57
2023-02-26T06:34:04.775Z,31.73
2023-02-26T06:36:33.260Z,35.10
2023-02-26T06:39:03.165Z,35.07
2023-02-26T06:41:31.516Z,39.27
2023-02-26T06:43:59.983Z,35.37
2023-02-26T06:46:28.429Z,35.33
2023-02-26T06:48:56.731Z,41.50
2023-02-26T06:51:25.149Z,41.03
2023-02-26T06:53:56.110Z,37.20
2023-02-26T06:56:26.527Z,35.80
2023-02-26T06:58:55.111Z,42.07
2023-02-26T07:01:24.321Z,39.43
2023-02-26T07:03:52.989Z,43.43
2023-02-26T07:06:27.696Z,45.60
2023-02-26T07:09:03.803Z,45.83
2023-02-26T07:11:33.520Z,45.23
2023-02-26T07:14:02.260Z,41.17
2023-02-26T07:16:30.618Z,42.87
2023-02-26T07:18:59.480Z,42.30
2023-02-26T07:21:27.956Z,45.67
2023-02-26T07:23:56.568Z,48.33
2023-02-26T07:26:25.162Z,34.23
2023-02-26T07:28:55.169Z,33.97
2023-02-26T07:31:24.278Z,35.73
2023-02-26T07:33:52.666Z,38.67
2023-02-26T07:36:21.058Z,36.63
2023-02-26T07:38:49.560Z,31.60
2023-02-26T07:41:17.863Z,35.77
2023-02-26T07:43:46.710Z,36.10
2023-02-26T07:46:16.507Z,39.40
2023-02-26T07:48:45.076Z,33.57
2023-02-26T07:51:13.374Z,33.47
2023-02-26T07:53:41.710Z,31.43
2023-02-26T07:56:12.966Z,32.57
2023-02-26T07:58:41.298Z,34.37
2023-02-26T08:01:09.901Z,34.00
2023-02-26T08:03:39.736Z,36.17
2023-02-26T08:06:08.796Z,40.30
2023-02-26T08:08:37.164Z,37.33
2023-02-26T08:11:05.997Z,30.57
2023-02-26T08:13:34.793Z,31.50
2023-02-26T08:16:03.282Z,36.80
2023-02-26T08:18:31.632Z,44.53
2023-02-26T08:21:01.489Z,38.53
2023-02-26T08:23:29.884Z,28.63
2023-02-26T08:26:02.537Z,29.37
2023-02-26T08:28:30.917Z,33.13
2023-02-26T08:30:59.523Z,33.73
2023-02-26T08:33:28.548Z,31.87
2023-02-26T08:35:58.012Z,38.43
2023-02-26T08:38:27.903Z,35.53
2023-02-26T08:40:58.569Z,34.53
2023-02-26T08:43:29.987Z,33.27
2023-02-26T08:46:00.185Z,36.77
2023-02-26T08:48:28.491Z,44.40
2023-02-26T08:50:56.766Z,38.93
2023-02-26T08:53:25.135Z,39.80
2023-02-26T08:55:55.530Z,37.23
2023-02-26T08:58:24.024Z,32.33
2023-02-26T09:00:52.293Z,37.03
2023-02-26T09:03:20.658Z,39.53
2023-02-26T09:05:48.959Z,37.93
2023-02-26T09:08:17.385Z,43.83
2023-02-26T09:10:45.808Z,42.93
2023-02-26T09:13:17.736Z,37.20
2023-02-26T09:15:46.244Z,38.57
2023-02-26T09:18:16.415Z,40.03
2023-02-26T09:20:45.787Z,36.00
2023-02-26T09:23:16.712Z,31.27
2023-02-26T09:25:45.583Z,30.60
2023-02-26T09:28:15.382Z,11.83
2023-02-26T09:30:43.802Z,10.90
2023-02-26T09:33:12.083Z,18.00
2023-02-26T09:35:51.134Z,15.80
2023-02-26T09:38:25.454Z,13.53
2023-02-26T09:41:01.505Z,14.93
2023-02-26T09:44:03.981Z,13.90
2023-02-26T09:46:40.283Z,10.77
2023-02-26T09:49:22.945Z,15.67
2023-02-26T09:51:55.704Z,12.90
2023-02-26T09:54:26.554Z,17.07
2023-02-26T09:56:59.661Z,13.90
2023-02-26T09:59:34.548Z,14.37
2023-02-26T10:02:12.390Z,12.43
2023-02-26T10:04:52.602Z,13.13
2023-02-26T10:07:32.909Z,11.57
2023-02-26T10:10:19.150Z,15.43
2023-02-26T10:12:50.568Z,10.97
2023-02-26T10:15:23.808Z,13.80
2023-02-26T10:18:09.483Z,10.67
2023-02-26T10:20:43.373Z,17.90
2023-02-26T10:23:21.034Z,14.88
2023-02-26T10:25:53.978Z,12.80
2023-02-26T10:28:36.812Z,8.07
2023-02-26T10:31:13.293Z,12.23
2023-02-26T10:33:51.424Z,17.52
2023-02-26T10:36:25.223Z,15.25
2023-02-26T10:39:00.474Z,14.27
2023-02-26T10:41:32.107Z,17.02
2023-02-26T10:44:07.735Z,10.70
2023-02-26T10:46:44.602Z,11.70
2023-02-26T10:49:48.055Z,20.63
2023-02-26T10:52:19.251Z,13.13
2023-02-26T10:55:12.967Z,17.13
2023-02-26T10:57:50.335Z,9.18
2023-02-26T11:00:21.227Z,19.90
2023-02-26T11:02:53.531Z,13.50
2023-02-26T11:05:24.665Z,19.70
2023-02-26T11:07:56.998Z,8.52
2023-02-26T11:10:28.580Z,19.15
2023-02-26T11:12:57.099Z,14.00
2023-02-26T11:15:28.607Z,15.77
2023-02-26T11:18:01.823Z,14.50
2023-02-26T11:20:36.374Z,13.48
2023-02-26T11:23:08.840Z,10.65
2023-02-26T11:25:38.064Z,14.00
2023-02-26T11:28:08.969Z,18.27
2023-02-26T11:30:39.491Z,11.32
2023-02-26T11:33:19.226Z,18.13
2023-02-26T11:35:49.723Z,12.02
2023-02-26T11:38:34.172Z,13.00
2023-02-26T11:41:03.316Z,9.00
2023-02-26T11:43:38.546Z,18.92
2023-02-26T11:46:07.290Z,14.13
2023-02-26T11:48:42.305Z,16.63
2023-02-26T11:51:16.478Z,22.50
2023-02-26T11:53:50.991Z,20.92
2023-02-26T11:56:26.695Z,14.23
2023-02-26T11:58:56.818Z,13.82
2023-02-26T12:01:29.990Z,14.65
2023-02-26T12:04:03.575Z,17.92
2023-02-26T12:06:32.346Z,13.73
2023-02-26T12:09:00.896Z,16.08
2023-02-26T12:11:59.931Z,15.55
2023-02-26T12:14:58.254Z,18.60
2023-02-26T12:17:43.448Z,11.07
2023-02-26T12:20:22.442Z,17.55
2023-02-26T12:22:56.115Z,14.80
2023-02-26T12:26:19.574Z,15.80
2023-02-26T12:30:13.827Z,16.40
2023-02-26T12:32:52.764Z,12.73
2023-02-26T12:35:46.110Z,14.02
2023-02-26T12:38:36.383Z,13.60
2023-02-26T12:41:20.549Z,11.05
2023-02-26T12:43:51.207Z,15.63
2023-02-26T12:46:35.711Z,19.02
2023-02-26T12:49:39.325Z,18.85
2023-02-26T12:52:40.911Z,10.85
2023-02-26T12:55:23.629Z,12.73
2023-02-26T12:58:32.460Z,13.57
2023-02-26T13:01:25.892Z,20.40
2023-02-26T13:04:18.974Z,11.82
2023-02-26T13:07:10.501Z,15.18
2023-02-26T13:09:53.576Z,14.43
2023-02-26T13:12:41.873Z,15.77
2023-02-26T13:15:35.447Z,8.40
2023-02-26T13:18:09.563Z,14.90
2023-02-26T13:20:40.216Z,13.63
2023-02-26T13:23:15.313Z,22.10
2023-02-26T13:25:51.937Z,14.73
2023-02-26T13:28:39.321Z,11.75
2023-02-26T13:31:14.681Z,15.52
2023-02-26T13:33:44.825Z,13.63
2023-02-26T13:36:14.707Z,18.80
2023-02-26T13:38:55.498Z,20.33
2023-02-26T13:41:31.830Z,11.27
2023-02-26T13:44:13.686Z,17.83
2023-02-26T13:46:54.400Z,12.57
2023-02-26T13:49:30.806Z,16.15
2023-02-26T13:51:59.177Z,23.23
2023-02-26T13:54:36.655Z,22.88
2023-02-26T13:57:11.014Z,10.18
2023-02-26T13:59:53.356Z,13.15
2023-02-26T14:02:48.876Z,13.48
2023-02-26T14:05:36.335Z,10.73
2023-02-26T14:08:23.464Z,10.85
2023-02-26T14:11:00.945Z,28.98
2023-02-26T14:13:37.772Z,9.35
2023-02-26T14:16:24.937Z,13.07
2023-02-26T14:18:54.822Z,10.27
2023-02-26T14:21:50.079Z,15.25
2023-02-26T14:24:23.391Z,13.65
2023-02-26T14:27:05.725Z,13.45
2023-02-26T14:33:51.121Z,12.77
2023-02-26T14:36:36.848Z,16.58
2023-02-26T14:39:09.356Z,17.55
2023-02-26T14:41:41.573Z,13.93
2023-02-26T14:44:17.122Z,18.25
2023-02-26T14:46:46.724Z,17.13
2023-02-26T14:49:20.165Z,15.35
2023-02-26T14:52:11.708Z,11.70
2023-02-26T14:54:52.501Z,19.90
2023-02-26T14:57:29.307Z,15.63
2023-02-26T15:00:24.158Z,29.15
2023-02-26T15:03:19.348Z,16.23
2023-02-26T15:06:01.403Z,40.33
2023-02-26T15:08:44.305Z,19.52
2023-02-26T15:11:36.395Z,19.63
2023-02-26T15:14:26.682Z,22.00
2023-02-26T15:17:05.139Z,12.52
2023-02-26T15:19:52.803Z,13.05
2023-02-26T15:22:45.533Z,14.60
2023-02-26T15:25:24.197Z,11.75
2023-02-26T15:27:52.859Z,11.55
2023-02-26T15:30:21.814Z,20.95
2023-02-26T15:32:50.275Z,33.42
2023-02-26T15:35:21.000Z,14.73
2023-02-26T15:37:54.797Z,15.60
2023-02-26T15:40:23.382Z,12.35
2023-02-26T15:42:55.124Z,12.57
2023-02-26T15:45:29.004Z,15.87
2023-02-26T15:47:59.859Z,15.40
2023-02-26T15:50:31.997Z,13.75
2023-02-26T15:53:04.587Z,12.38
2023-02-26T15:55:37.078Z,9.32
2023-02-26T15:58:07.632Z,14.67
2023-02-26T16:00:39.419Z,15.17
2023-02-26T16:03:12.474Z,9.20
2023-02-26T16:05:44.778Z,10.67
2023-02-26T16:08:18.420Z,12.40
2023-02-26T16:10:46.828Z,9.55
2023-02-26T16:13:18.902Z,9.57
2023-02-26T16:15:49.660Z,11.40
2023-02-26T16:18:24.195Z,13.80
2023-02-26T16:20:58.973Z,10.47
2023-02-26T16:23:38.272Z,14.10
2023-02-26T16:26:09.346Z,14.10
2023-02-26T16:28:45.850Z,14.03
2023-02-26T16:31:20.533Z,8.90
2023-02-26T16:33:58.779Z,9.93
2023-02-26T16:36:30.740Z,10.93
2023-02-26T16:39:04.050Z,10.30
2023-02-26T16:41:35.833Z,14.40
2023-02-26T16:44:06.232Z,18.73
2023-02-26T16:46:43.909Z,10.13
2023-02-26T16:49:18.738Z,11.87
2023-02-26T16:51:48.983Z,11.30
2023-02-26T16:54:22.735Z,13.13
2023-02-26T16:56:56.474Z,12.50
2023-02-26T16:59:26.741Z,12.47
2023-02-26T17:01:59.958Z,12.90
2023-02-26T17:04:31.927Z,13.37
2023-02-26T17:07:01.051Z,14.83
2023-02-26T17:09:38.999Z,13.57
2023-02-26T17:12:16.901Z,11.13
2023-02-26T17:14:48.046Z,12.53
2023-02-26T17:17:16.686Z,13.50
2023-02-26T17:19:45.053Z,13.40
2023-02-26T17:22:16.114Z,16.90
2023-02-26T17:24:47.610Z,13.77
2023-02-26T17:27:21.192Z,18.70
2023-02-26T17:29:51.927Z,12.37
2023-02-26T17:32:22.092Z,13.97
2023-02-26T17:34:51.719Z,17.03
2023-02-26T17:37:20.591Z,19.70
2023-02-26T17:39:51.092Z,13.37
2023-02-26T17:42:21.520Z,17.08
2023-02-26T17:44:50.208Z,20.87
2023-02-26T17:47:20.550Z,19.57
2023-02-26T17:49:49.232Z,14.60
2023-02-26T17:52:18.185Z,15.23
2023-02-26T17:54:46.627Z,16.90
2023-02-26T17:57:19.559Z,16.50
2023-02-26T17:59:48.864Z,16.53
2023-02-26T18:02:23.289Z,16.87
2023-02-26T18:04:52.176Z,16.17
2023-02-26T18:07:21.234Z,15.93
2023-02-26T18:09:49.975Z,18.47
2023-02-26T18:12:22.559Z,18.20
2023-02-26T18:14:51.186Z,19.17
2023-02-26T18:17:23.898Z,19.43
2023-02-26T18:19:53.009Z,16.73
2023-02-26T18:22:25.321Z,18.83
2023-02-26T18:24:53.955Z,22.80
2023-02-26T18:27:25.462Z,22.87
2023-02-26T18:29:54.110Z,19.67
2023-02-26T18:32:25.345Z,20.93
2023-02-26T18:34:53.839Z,21.13
2023-02-26T18:37:27.400Z,20.00
2023-02-26T18:39:55.948Z,20.93
2023-02-26T18:42:28.116Z,18.50
2023-02-26T18:44:56.903Z,15.43
2023-02-26T18:47:25.163Z,19.13
2023-02-26T18:49:53.701Z,21.93
2023-02-26T18:52:22.052Z,14.33
2023-02-26T18:54:50.429Z,17.43
2023-02-26T18:57:18.834Z,14.90
2023-02-26T18:59:48.721Z,14.53
2023-02-26T19:02:17.078Z,12.20
2023-02-26T19:04:47.199Z,17.20
2023-02-26T19:07:15.854Z,15.53
2023-02-26T19:09:44.369Z,13.77
2023-02-26T19:12:18.827Z,13.73
2023-02-26T19:14:48.705Z,13.30
2023-02-26T19:17:17.372Z,17.57
2023-02-26T19:19:45.769Z,13.63
2023-02-26T19:22:15.754Z,15.57
2023-02-26T19:24:45.555Z,17.47
2023-02-26T19:27:15.545Z,13.00
2023-02-26T19:29:44.080Z,13.63
2023-02-26T19:32:14.295Z,16.80
2023-02-26T19:34:42.811Z,12.53
2023-02-26T19:37:11.817Z,13.97
2023-02-26T19:39:42.922Z,14.90
2023-02-26T19:42:11.398Z,16.37
2023-02-26T19:44:39.743Z,11.93
2023-02-26T19:47:08.321Z,17.30
2023-02-26T19:49:38.076Z,12.60
2023-02-26T19:52:08.265Z,15.60
2023-02-26T19:54:36.639Z,15.23
2023-02-26T19:57:05.175Z,15.83
2023-02-26T19:59:33.604Z,14.03
2023-02-26T20:02:01.996Z,15.40
2023-02-26T20:04:30.473Z,13.60
2023-02-26T20:07:00.196Z,13.83
2023-02-26T20:09:29.024Z,11.17
2023-02-26T20:11:57.564Z,17.90
2023-02-26T20:14:26.008Z,17.23
2023-02-26T20:16:54.409Z,10.17
2023-02-26T20:19:22.708Z,10.57
2023-02-26T20:21:51.074Z,10.20
2023-02-26T20:24:21.223Z,9.37
2023-02-26T20:26:49.814Z,10.20
2023-02-26T20:29:19.233Z,11.87
2023-02-26T20:31:49.685Z,17.10
2023-02-26T20:34:19.456Z,12.40
2023-02-26T20:36:50.085Z,12.73
2023-02-26T20:39:21.142Z,13.47
2023-02-26T20:41:50.651Z,14.30
2023-02-26T20:44:19.111Z,13.47
2023-02-26T20:46:47.744Z,9.97
2023-02-26T20:49:16.085Z,14.77
2023-02-26T20:51:45.157Z,13.10
2023-02-26T20:54:14.796Z,12.97
2023-02-26T20:56:45.354Z,11.10
2023-02-26T20:59:13.709Z,11.10
2023-02-26T21:01:42.176Z,10.83
2023-02-26T21:04:11.168Z,11.17
2023-02-26T21:06:39.902Z,7.50
2023-02-26T21:09:11.127Z,8.57
2023-02-26T21:11:40.493Z,7.67
2023-02-26T21:14:11.158Z,8.37
2023-02-26T21:16:42.447Z,9.23
2023-02-26T21:19:10.850Z,8.77
2023-02-26T21:21:39.287Z,10.30
2023-02-26T21:24:08.272Z,8.53
2023-02-26T21:26:36.654Z,8.60
2023-02-26T21:29:05.441Z,8.73
2023-02-26T21:31:35.228Z,9.00
2023-02-26T21:34:23.729Z,7.70
2023-02-26T21:36:52.608Z,9.00
2023-02-26T21:39:20.982Z,7.80
2023-02-26T21:41:49.252Z,5.40
2023-02-26T21:44:17.695Z,9.00
2023-02-26T21:46:47.460Z,6.87
2023-02-26T21:49:15.780Z,7.37
2023-02-26T21:51:44.204Z,7.47
2023-02-26T21:54:12.764Z,7.77
2023-02-26T21:56:41.203Z,7.50
2023-02-26T21:59:09.531Z,5.53
2023-02-26T22:01:37.907Z,8.97
2023-02-26T22:04:08.070Z,6.13
2023-02-26T22:06:36.646Z,7.33
2023-02-26T22:09:05.366Z,5.23
2023-02-26T22:11:33.748Z,4.37
2023-02-26T22:14:02.283Z,5.67
2023-02-26T22:16:30.871Z,5.23
2023-02-26T22:18:59.201Z,4.63
2023-02-26T22:21:29.400Z,4.83
2023-02-26T22:23:57.957Z,4.27
2023-02-26T22:26:26.252Z,5.00
2023-02-26T22:28:54.629Z,3.67
2023-02-26T22:31:23.070Z,4.93
2023-02-26T22:33:51.472Z,5.50
2023-02-26T22:36:19.856Z,10.23
2023-02-26T22:38:49.884Z,5.40
2023-02-26T22:41:18.185Z,6.57
2023-02-26T22:43:46.489Z,6.33
2023-02-26T22:46:17.049Z,6.33
2023-02-26T22:48:45.598Z,7.77
2023-02-26T22:51:13.988Z,4.80
2023-02-26T22:53:42.235Z,5.33
2023-02-26T22:56:12.148Z,4.77
2023-02-26T22:58:40.890Z,8.00
2023-02-26T23:01:09.584Z,9.00
2023-02-26T23:03:37.966Z,8.60
2023-02-26T23:06:07.649Z,4.93
2023-02-26T23:08:36.153Z,4.70
2023-02-26T23:11:05.401Z,5.05
2023-02-26T23:13:36.152Z,4.63
2023-02-26T23:16:06.145Z,5.03
2023-02-26T23:18:36.602Z,5.10
2023-02-26T23:21:06.229Z,5.20
2023-02-26T23:23:34.642Z,6.63
2023-02-26T23:26:03.109Z,5.90
2023-02-26T23:28:31.616Z,4.83
2023-02-26T23:31:01.535Z,5.43
2023-02-26T23:33:29.992Z,6.07
2023-02-26T23:35:58.417Z,5.73
2023-02-26T23:38:26.923Z,6.57
2023-02-26T23:40:56.781Z,5.60
2023-02-26T23:43:26.848Z,9.83
2023-02-26T23:45:55.225Z,7.30
2023-02-26T23:48:27.408Z,7.87
2023-02-26T23:50:55.994Z,7.70
2023-02-26T23:53:24.791Z,7.13
2023-02-26T23:55:58.405Z,7.57
2023-02-26T23:58:28.128Z,6.53
